EST,Max TemperatureF,Mean TemperatureF,Min TemperatureF,Max Dew PointF,MeanDew PointF,Min DewpointF,Max Humidity, Mean Humidity, Min Humidity, Max Sea Level PressureIn, Mean Sea Level PressureIn, Min Sea Level PressureIn, Max VisibilityMiles, Mean VisibilityMiles, Min VisibilityMiles, Max Wind SpeedMPH, Mean Wind SpeedMPH, Max Gust SpeedMPH,PrecipitationIn, CloudCover, Events, WindDirDegrees
2013-11-1,54,46,39,54,44,37,100,94,86,29.65,29.29,28.90,10,8,0,20,9,30,0.20,8,Fog-Rain,304
2013-11-2,39,36,34,37,30,24,91,77,63,30.14,29.90,29.65,10,10,7,15,9,20,0.00,7,,24
2013-11-3,41,37,33,31,27,23,76,68,55,30.40,30.31,30.15,10,10,10,16,8,23,0.00,5,,111
2013-11-4,48,42,36,32,30,26,79,64,43,30.40,30.29,30.15,10,10,10,20,13,31,0.00,3,Rain,148
2013-11-5,51,48,44,47,42,32,98,79,61,30.24,30.17,30.00,10,10,5,12,8,21,0.05,6,Rain,200
2013-11-6,51,43,35,51,43,32,99,95,83,29.99,29.79,29.61,10,8,2,17,10,28,0.56,8,Rain,241
2013-11-7,38,36,33,32,31,29,88,80,70,30.03,29.98,29.93,10,10,10,17,13,25,0.00,8,,290
2013-11-8,39,36,33,32,28,23,90,72,53,30.17,30.11,30.03,10,10,10,15,10,21,0.00,8,,269
2013-11-9,44,38,33,44,36,28,97,86,67,30.05,29.73,29.58,10,8,2,33,13,43,0.15,8,Rain-Snow,202
2013-11-10,43,38,35,36,32,28,92,78,66,30.15,29.98,29.69,10,10,5,24,17,37,0.00,7,Rain-Snow,289
2013-11-11,44,34,25,36,24,15,98,75,55,30.33,30.08,29.90,10,9,1,24,18,33,0.04,7,Rain-Snow,306
2013-11-12,29,26,24,22,18,13,87,70,56,30.49,30.43,30.33,10,9,0,17,12,28,0.00,7,Snow,307
2013-11-13,43,34,25,33,26,13,80,66,54,30.39,30.08,29.80,10,10,10,32,14,53,0.00,2,,245
2013-11-14,45,43,41,39,35,32,91,75,66,29.84,29.81,29.77,10,10,5,25,19,41,0.02,4,Rain,236
2013-11-15,47,44,41,40,39,37,93,83,74,29.92,29.85,29.80,10,10,5,15,10,23,0.01,4,Rain,219
2013-11-16,52,44,38,50,40,34,97,83,72,29.93,29.80,29.51,10,9,4,16,9,29,0.15,5,Rain,153
2013-11-17,57,50,43,56,52,42,99,95,91,29.51,29.27,28.93,10,8,1,30,14,40,2.08,8,Rain,172
2013-11-18,43,36,29,41,28,20,94,80,68,30.07,29.61,29.14,10,8,1,44,28,56,0.03,8,Rain-Snow,284
2013-11-19,32,29,26,25,21,18,85,71,60,30.34,30.28,30.08,10,10,10,22,11,32,0.00,5,,297
2013-11-20,41,36,31,32,27,25,80,72,53,30.34,30.28,30.20,10,10,10,13,10,23,0.00,0,,147
2013-11-21,41,39,37,40,34,29,99,84,73,30.21,30.17,30.14,10,8,1,8,5,,0.01,8,Rain,168
2013-11-22,38,31,24,38,27,20,99,86,65,30.31,30.23,30.15,10,8,2,17,8,25,0.02,7,Rain-Snow,316
2013-11-23,29,22,15,24,11,4,89,71,54,30.45,30.33,30.17,10,9,1,24,16,38,0.00,5,Snow,316
2013-11-24,24,18,14,18,11,6,84,72,58,30.50,30.39,30.10,10,9,4,20,9,32,0.00,7,Snow,280
2013-11-25,37,30,24,32,28,16,99,83,70,30.08,29.85,29.77,10,6,0,24,17,41,0.02,8,Snow,231
2013-11-26,37,28,20,31,23,14,90,78,71,30.01,29.92,29.83,10,8,1,18,12,26,0.00,8,Snow,312
2013-11-27,23,20,16,18,11,8,91,70,54,30.15,30.05,29.96,10,10,2,22,13,33,0.00,4,Snow,354
2013-11-28,22,16,10,19,14,7,89,81,72,30.43,30.26,30.15,10,9,1,9,6,,0.00,6,Snow,79
2013-11-29,29,24,19,23,18,14,91,74,54,30.59,30.51,30.44,10,10,10,12,6,22,0.00,6,,144
2013-11-30,35,31,27,32,27,19,99,83,70,30.43,30.14,30.00,10,7,1,17,10,29,0.01,8,Snow,189